首页
METAR-TAF:

METAR-TAF

机场 :

Golden Triangle Regional Airport

哥伦布/ West Point / 斯塔克維爾, 密西西比州, 美国

纬度: 33-27N, 经度: 088-35W, 海拔: 80米

当前天气观测

该预报发布于10小时和29分钟前的22:56 UTC
风速7节,风向东转东南
温度 28°C
湿度 74%
气压 1016 hPa
能見度: 16.1公里
少量云层高于2400英尺

METAR: KGTR 192256Z 12007KT 10SM FEW024 28/23 A3000

时间: 04:25 (09:25 UTC)

预报

该预报发布于2小时和36分钟前的06:49 UTC
预报有效从20日的 06点(UTC)到 21日的 06点(UTC)
风速4节,风向多变
能見度: 10公里
散云层高于2500英尺
多云层高于4000英尺
附近有阵雨
从 20日的 1000点(UTC)
风速节,风向
能見度: 10公里
多云层高于700英尺
多云层高于1500英尺
从 20日的 1600点(UTC)
风速4节,风向
能見度: 10公里
散云层高于2500英尺
多云层高于4000英尺
附近有阵雨
几率 30%
从 20日的 19点(UTC)到 20日的 23点(UTC)
能見度: 10公里
多云层高于5000英尺, 积雨云.
雷暴, 小雨
从 21日的 0100点(UTC)
风速3节,风向多变
能見度: 10公里
多云层高于9000英尺

TAF: KGTR 200649Z 2006/2106 VRB04KT P6SM VCSH SCT025 BKN040 FM201000 00000KT P6SM BKN007 BKN015 FM201600 19004KT P6SM VCSH SCT025 BKN040 PROB30 2019/2023 P6SM -TSRA BKN050CB FM210100 VRB03KT P6SM BKN090 AMD NOT SKED

超过4000个机场的气象观测和天气预报(METAR&TAF报告)。

可查询的气象台以黄色和红色小点在地图上表示。

将鼠标移到小点上方,可查看气象台名称。

然后点击查看天气观测和预报。

如需切换地图:点击带黑十字的绿色按钮放大地图;点击带横线的绿色按钮缩小地图;或者点击绿色箭头查看邻近地区的地图。


METAR-TAF: